createdAt,value
2018-05-19T00:00:32.555Z,1015.31
2018-05-19T00:01:32.545Z,1015.36
2018-05-19T00:02:32.549Z,1015.32
2018-05-19T00:03:32.535Z,1015.28
2018-05-19T00:04:32.531Z,1015.32
2018-05-19T00:05:32.516Z,1015.33
2018-05-19T00:06:32.512Z,1015.33
2018-05-19T00:07:32.507Z,1015.31
2018-05-19T00:08:36.613Z,1015.31
2018-05-19T00:09:32.491Z,1015.30
2018-05-19T00:10:32.480Z,1015.32
2018-05-19T00:11:32.475Z,1015.28
2018-05-19T00:12:32.461Z,1015.30
2018-05-19T00:13:32.456Z,1015.32
2018-05-19T00:14:32.451Z,1015.31
2018-05-19T00:15:32.437Z,1015.32
2018-05-19T00:16:32.433Z,1015.30
2018-05-19T00:17:32.423Z,1015.31
2018-05-19T00:18:32.421Z,1015.32
2018-05-19T00:19:32.423Z,1015.28
2018-05-19T00:20:32.405Z,1015.29
2018-05-19T00:21:32.391Z,1015.28
2018-05-19T00:22:32.387Z,1015.28
2018-05-19T00:23:32.377Z,1015.23
2018-05-19T00:24:32.377Z,1015.26
2018-05-19T00:25:32.366Z,1015.27
2018-05-19T00:26:32.356Z,1015.29
2018-05-19T00:27:32.350Z,1015.27
2018-05-19T00:28:32.345Z,1015.27
2018-05-19T00:29:32.332Z,1015.28
2018-05-19T00:30:32.324Z,1015.22
2018-05-19T00:31:32.320Z,1015.24
2018-05-19T00:32:32.312Z,1015.23
2018-05-19T00:33:32.304Z,1015.25
2018-05-19T00:34:32.300Z,1015.25
2018-05-19T00:35:32.283Z,1015.23
2018-05-19T00:36:32.281Z,1015.20
2018-05-19T00:37:32.268Z,1015.19
2018-05-19T00:38:32.264Z,1015.21
2018-05-19T00:39:32.258Z,1015.24
2018-05-19T00:40:32.243Z,1015.25
2018-05-19T00:41:32.238Z,1015.25
2018-05-19T00:42:32.232Z,1015.26
2018-05-19T00:43:32.221Z,1015.24
2018-05-19T00:44:32.217Z,1015.25
2018-05-19T00:45:32.205Z,1015.26
2018-05-19T00:46:32.200Z,1015.30
2018-05-19T00:47:32.196Z,1015.24
2018-05-19T00:48:32.189Z,1015.23
2018-05-19T00:49:32.174Z,1015.24
2018-05-19T00:50:32.173Z,1015.24
2018-05-19T00:51:32.186Z,1015.22
2018-05-19T00:52:32.197Z,1015.26
2018-05-19T00:53:32.147Z,1015.25
2018-05-19T00:54:32.143Z,1015.24
2018-05-19T00:55:32.141Z,1015.27
2018-05-19T00:56:32.123Z,1015.25
2018-05-19T00:57:32.133Z,1015.24
2018-05-19T00:58:32.108Z,1015.23
2018-05-19T00:59:32.101Z,1015.22
2018-05-19T01:00:32.093Z,1015.19
2018-05-19T01:01:32.083Z,1015.21
2018-05-19T01:02:32.077Z,1015.20
2018-05-19T01:03:32.066Z,1015.22
2018-05-19T01:04:32.062Z,1015.25
2018-05-19T01:05:32.051Z,1015.32
2018-05-19T01:06:32.042Z,1015.25
2018-05-19T01:07:32.038Z,1015.23
2018-05-19T01:08:32.025Z,1015.23
2018-05-19T01:09:32.022Z,1015.21
2018-05-19T01:10:32.008Z,1015.21
2018-05-19T01:11:32.003Z,1015.24
2018-05-19T01:12:31.998Z,1015.23
2018-05-19T01:13:31.987Z,1015.24
2018-05-19T01:14:31.979Z,1015.25
2018-05-19T01:15:31.972Z,1015.22
2018-05-19T01:16:31.965Z,1015.23
2018-05-19T01:17:31.953Z,1015.20
2018-05-19T01:18:31.944Z,1015.20
2018-05-19T01:19:31.941Z,1015.18
2018-05-19T01:20:31.931Z,1015.22
2018-05-19T01:21:31.927Z,1015.22
2018-05-19T01:22:31.917Z,1015.21
2018-05-19T01:23:31.915Z,1015.21
2018-05-19T01:24:31.900Z,1015.17
2018-05-19T01:25:31.892Z,1015.18
2018-05-19T01:26:31.883Z,1015.21
2018-05-19T01:27:31.881Z,1015.21
2018-05-19T01:28:31.866Z,1015.21
2018-05-19T01:29:31.861Z,1015.25
2018-05-19T01:30:31.854Z,1015.25
2018-05-19T01:31:31.844Z,1015.26
2018-05-19T01:32:31.836Z,1015.25
2018-05-19T01:33:31.825Z,1015.26
2018-05-19T01:34:31.826Z,1015.25
2018-05-19T01:35:31.812Z,1015.26
2018-05-19T01:36:31.805Z,1015.29
2018-05-19T01:37:31.794Z,1015.23
2018-05-19T01:38:31.787Z,1015.24
2018-05-19T01:39:31.781Z,1015.21
2018-05-19T01:40:31.779Z,1015.19
2018-05-19T01:41:31.783Z,1015.21
2018-05-19T01:42:31.767Z,1015.19
2018-05-19T01:43:31.759Z,1015.17
2018-05-19T01:44:31.743Z,1015.16
2018-05-19T01:45:31.732Z,1015.12
2018-05-19T01:46:31.723Z,1015.17
2018-05-19T01:47:31.716Z,1015.15
2018-05-19T01:48:31.707Z,1015.13
2018-05-19T01:49:31.699Z,1015.16
2018-05-19T01:50:31.695Z,1015.15
2018-05-19T01:51:31.687Z,1015.17
2018-05-19T01:52:31.678Z,1015.15
2018-05-19T01:53:31.667Z,1015.18
2018-05-19T01:54:31.660Z,1015.17
2018-05-19T01:55:31.655Z,1015.18
2018-05-19T01:56:31.649Z,1015.20
2018-05-19T01:57:31.642Z,1015.18
2018-05-19T01:58:31.635Z,1015.18
2018-05-19T01:59:31.619Z,1015.17
2018-05-19T02:00:31.611Z,1015.18
2018-05-19T02:01:31.604Z,1015.14
2018-05-19T02:02:31.598Z,1015.16
2018-05-19T02:03:31.594Z,1015.17
2018-05-19T02:04:31.581Z,1015.19
2018-05-19T02:05:31.572Z,1015.17
2018-05-19T02:06:31.561Z,1015.18
2018-05-19T02:07:31.559Z,1015.14
2018-05-19T02:08:31.553Z,1015.13
2018-05-19T02:09:31.540Z,1015.12
2018-05-19T02:10:31.528Z,1015.15
2018-05-19T02:11:31.522Z,1015.18
2018-05-19T02:12:31.516Z,1015.17
2018-05-19T02:13:31.512Z,1015.19
2018-05-19T02:14:31.498Z,1015.19
2018-05-19T02:15:31.502Z,1015.15
2018-05-19T02:16:31.482Z,1015.20
2018-05-19T02:17:31.483Z,1015.17
2018-05-19T02:18:31.465Z,1015.14
2018-05-19T02:19:31.461Z,1015.15
2018-05-19T02:20:31.456Z,1015.20
2018-05-19T02:21:31.442Z,1015.14
2018-05-19T02:22:31.436Z,1015.14
2018-05-19T02:23:31.429Z,1015.14
2018-05-19T02:24:31.433Z,1015.12
2018-05-19T02:25:31.415Z,1015.14
2018-05-19T02:26:31.400Z,1015.12
2018-05-19T02:27:31.392Z,1015.15
2018-05-19T02:28:31.384Z,1015.15
2018-05-19T02:29:31.375Z,1015.13
2018-05-19T02:30:31.372Z,1015.15
2018-05-19T02:31:31.365Z,1015.12
2018-05-19T02:32:31.362Z,1015.11
2018-05-19T02:33:31.345Z,1015.15
2018-05-19T02:34:31.338Z,1015.15
2018-05-19T02:35:31.332Z,1015.12
2018-05-19T02:36:31.322Z,1015.11
2018-05-19T02:37:31.315Z,1015.13
2018-05-19T02:38:31.310Z,1015.12
2018-05-19T02:39:31.296Z,1015.11
2018-05-19T02:40:31.286Z,1015.11
2018-05-19T02:41:31.282Z,1015.14
2018-05-19T02:42:31.272Z,1015.12
2018-05-19T02:43:31.261Z,1015.14
2018-05-19T02:44:31.259Z,1015.10
2018-05-19T02:45:31.246Z,1015.11
2018-05-19T02:46:31.244Z,1015.08
2018-05-19T02:47:31.232Z,1015.04
2018-05-19T02:48:31.220Z,1015.08
2018-05-19T02:49:31.217Z,1015.05
2018-05-19T02:50:31.210Z,1015.05
2018-05-19T02:51:31.200Z,1015.06
2018-05-19T02:52:31.194Z,1015.09
2018-05-19T02:53:31.195Z,1015.08
2018-05-19T02:54:31.177Z,1015.07
2018-05-19T02:55:31.167Z,1015.08
2018-05-19T02:56:31.163Z,1015.07
2018-05-19T02:57:31.151Z,1015.09
2018-05-19T02:58:31.145Z,1015.10
2018-05-19T02:59:31.133Z,1015.08
2018-05-19T03:00:31.125Z,1015.10
2018-05-19T03:01:31.119Z,1015.13
2018-05-19T03:02:31.107Z,1015.12
2018-05-19T03:03:31.099Z,1015.10
2018-05-19T03:04:31.094Z,1015.14
2018-05-19T03:05:31.082Z,1015.15
2018-05-19T03:06:31.079Z,1015.11
2018-05-19T03:07:31.064Z,1015.13
2018-05-19T03:08:31.068Z,1015.09
2018-05-19T03:09:31.048Z,1015.12
2018-05-19T03:10:31.041Z,1015.10
2018-05-19T03:11:31.031Z,1015.07
2018-05-19T03:12:31.030Z,1015.07
2018-05-19T03:13:31.021Z,1015.08
2018-05-19T03:14:31.024Z,1015.08
2018-05-19T03:15:31.006Z,1015.05
2018-05-19T03:16:30.992Z,1015.08
2018-05-19T03:17:30.983Z,1015.10
2018-05-19T03:18:30.976Z,1015.08
2018-05-19T03:19:30.967Z,1015.09
2018-05-19T03:20:30.962Z,1015.10
2018-05-19T03:21:30.950Z,1015.11
2018-05-19T03:22:30.943Z,1015.09
2018-05-19T03:23:30.934Z,1015.08
2018-05-19T03:24:30.927Z,1015.07
2018-05-19T03:25:30.919Z,1015.04
2018-05-19T03:26:30.929Z,1015.07
2018-05-19T03:27:30.901Z,1015.08
2018-05-19T03:28:30.922Z,1015.08
2018-05-19T03:29:30.882Z,1015.10
2018-05-19T03:30:30.879Z,1015.09
2018-05-19T03:31:30.872Z,1015.10
2018-05-19T03:32:30.863Z,1015.10
2018-05-19T03:33:30.855Z,1015.10
2018-05-19T03:34:30.854Z,1015.10
2018-05-19T03:35:30.844Z,1015.10
2018-05-19T03:36:30.828Z,1015.11
2018-05-19T03:37:30.818Z,1015.11
2018-05-19T03:38:30.814Z,1015.15
2018-05-19T03:39:30.808Z,1015.13
2018-05-19T03:40:30.797Z,1015.16
2018-05-19T03:41:30.786Z,1015.17
2018-05-19T03:42:30.782Z,1015.16
2018-05-19T03:43:30.771Z,1015.16
2018-05-19T03:44:30.767Z,1015.17
2018-05-19T03:45:30.753Z,1015.18
2018-05-19T03:46:30.750Z,1015.15
2018-05-19T03:47:30.753Z,1015.18
2018-05-19T03:48:30.732Z,1015.22
2018-05-19T03:49:30.723Z,1015.21
2018-05-19T03:50:30.713Z,1015.22
2018-05-19T03:51:30.706Z,1015.24
2018-05-19T03:52:30.701Z,1015.27
2018-05-19T03:53:30.690Z,1015.28
2018-05-19T03:54:30.681Z,1015.26
2018-05-19T03:55:30.672Z,1015.27
2018-05-19T03:56:30.667Z,1015.26
2018-05-19T03:57:30.654Z,1015.27
2018-05-19T03:58:30.648Z,1015.27
2018-05-19T03:59:30.639Z,1015.27
2018-05-19T04:00:30.639Z,1015.30
2018-05-19T04:01:30.654Z,1015.27
2018-05-19T04:02:30.618Z,1015.31
2018-05-19T04:03:30.616Z,1015.32
2018-05-19T04:04:30.599Z,1015.33
2018-05-19T04:05:30.590Z,1015.35
2018-05-19T04:06:30.582Z,1015.34
2018-05-19T04:07:30.575Z,1015.38
2018-05-19T04:08:30.587Z,1015.38
2018-05-19T04:09:30.567Z,1015.44
2018-05-19T04:10:30.574Z,1015.42
2018-05-19T04:11:30.542Z,1015.42
2018-05-19T04:12:30.534Z,1015.47
2018-05-19T04:13:30.529Z,1015.50
2018-05-19T04:14:30.520Z,1015.50
2018-05-19T04:15:30.509Z,1015.49
2018-05-19T04:16:30.502Z,1015.51
2018-05-19T04:17:30.495Z,1015.51
2018-05-19T04:18:30.484Z,1015.51
2018-05-19T04:19:30.479Z,1015.52
2018-05-19T04:20:30.472Z,1015.47
2018-05-19T04:21:30.460Z,1015.48
2018-05-19T04:22:30.458Z,1015.46
2018-05-19T04:23:30.446Z,1015.52
2018-05-19T04:24:30.442Z,1015.53
2018-05-19T04:25:30.428Z,1015.51
2018-05-19T04:26:30.418Z,1015.51
2018-05-19T04:27:30.411Z,1015.51
2018-05-19T04:28:30.404Z,1015.51
2018-05-19T04:29:30.400Z,1015.50
2018-05-19T04:30:30.390Z,1015.50
2018-05-19T04:31:30.383Z,1015.50
2018-05-19T04:32:30.373Z,1015.51
2018-05-19T04:33:30.361Z,1015.49
2018-05-19T04:34:30.356Z,1015.47
2018-05-19T04:35:30.347Z,1015.48
2018-05-19T04:36:30.366Z,1015.48
2018-05-19T04:37:30.337Z,1015.49
2018-05-19T04:38:30.328Z,1015.51
2018-05-19T04:39:30.323Z,1015.53
2018-05-19T04:40:30.307Z,1015.55
2018-05-19T04:41:30.302Z,1015.51
2018-05-19T04:42:30.295Z,1015.53
2018-05-19T04:43:30.292Z,1015.53
2018-05-19T04:44:30.281Z,1015.55
2018-05-19T04:45:30.273Z,1015.54
2018-05-19T04:46:30.266Z,1015.56
2018-05-19T04:47:30.262Z,1015.55
2018-05-19T04:48:30.248Z,1015.52
2018-05-19T04:49:30.251Z,1015.54
2018-05-19T04:50:30.234Z,1015.53
2018-05-19T04:51:30.234Z,1015.55
2018-05-19T04:52:30.218Z,1015.57
2018-05-19T04:53:30.210Z,1015.57
2018-05-19T04:54:30.201Z,1015.55
2018-05-19T04:55:30.195Z,1015.56
2018-05-19T04:56:30.185Z,1015.60
2018-05-19T04:57:30.179Z,1015.57
2018-05-19T04:58:30.171Z,1015.62
2018-05-19T04:59:30.162Z,1015.62
2018-05-19T05:00:30.236Z,1015.61
2018-05-19T05:01:30.146Z,1015.68
2018-05-19T05:02:30.140Z,1015.69
2018-05-19T05:03:30.132Z,1015.66
2018-05-19T05:04:30.739Z,1015.69
2018-05-19T05:05:30.129Z,1015.67
2018-05-19T05:06:30.111Z,1015.70
2018-05-19T05:07:30.103Z,1015.72
2018-05-19T05:08:30.095Z,1015.65
2018-05-19T05:09:30.089Z,1015.69
2018-05-19T05:10:30.081Z,1015.68
2018-05-19T05:11:30.076Z,1015.70
2018-05-19T05:12:30.069Z,1015.72
2018-05-19T05:13:30.063Z,1015.72
2018-05-19T05:14:30.050Z,1015.72
2018-05-19T05:15:30.043Z,1015.72
2018-05-19T05:16:30.036Z,1015.74
2018-05-19T05:17:30.032Z,1015.73
2018-05-19T05:18:30.059Z,1015.72
2018-05-19T05:19:30.029Z,1015.74
2018-05-19T05:20:30.009Z,1015.70
2018-05-19T05:21:30.021Z,1015.73
2018-05-19T05:22:29.998Z,1015.71
2018-05-19T05:23:30.005Z,1015.76
2018-05-19T05:24:29.978Z,1015.77
2018-05-19T05:25:29.973Z,1015.76
2018-05-19T05:26:29.969Z,1015.78
2018-05-19T05:27:29.959Z,1015.79
2018-05-19T05:28:29.950Z,1015.79
2018-05-19T05:29:29.943Z,1015.83
2018-05-19T05:30:29.935Z,1015.84
2018-05-19T05:31:29.980Z,1015.85
2018-05-19T05:32:29.922Z,1015.87
2018-05-19T05:33:29.916Z,1015.86
2018-05-19T05:34:29.913Z,1015.85
2018-05-19T05:35:29.899Z,1015.82
2018-05-19T05:36:29.895Z,1015.86
2018-05-19T05:37:29.891Z,1015.86
2018-05-19T05:38:29.882Z,1015.93
2018-05-19T05:39:29.878Z,1015.93
2018-05-19T05:40:29.874Z,1015.92
2018-05-19T05:41:29.859Z,1015.91
2018-05-19T05:42:29.851Z,1015.94
2018-05-19T05:43:29.848Z,1015.96
2018-05-19T05:44:29.841Z,1015.96
2018-05-19T05:45:29.841Z,1016.01
2018-05-19T05:46:29.834Z,1016.01
2018-05-19T05:47:29.821Z,1016.04
2018-05-19T05:48:29.823Z,1016.02
2018-05-19T05:49:29.810Z,1016.00
2018-05-19T05:50:29.803Z,1016.02
2018-05-19T05:51:29.797Z,1016.08
2018-05-19T05:52:29.794Z,1016.09
2018-05-19T05:53:29.786Z,1016.11
2018-05-19T05:54:29.786Z,1016.12
2018-05-19T05:55:29.768Z,1016.13
2018-05-19T05:56:29.768Z,1016.17
2018-05-19T05:57:29.757Z,1016.18
2018-05-19T05:58:29.794Z,1016.16
2018-05-19T05:59:29.831Z,1016.18
2018-05-19T06:00:29.748Z,1016.19
2018-05-19T06:01:29.735Z,1016.16
2018-05-19T06:02:29.726Z,1016.24
2018-05-19T06:03:29.723Z,1016.23
2018-05-19T06:04:29.715Z,1016.23
2018-05-19T06:05:29.723Z,1016.24
2018-05-19T06:06:29.745Z,1016.21
2018-05-19T06:07:29.697Z,1016.23
2018-05-19T06:08:29.693Z,1016.24
2018-05-19T06:09:29.683Z,1016.31
2018-05-19T06:10:29.676Z,1016.28
2018-05-19T06:11:29.677Z,1016.31
2018-05-19T06:12:29.662Z,1016.31
2018-05-19T06:13:29.661Z,1016.28
2018-05-19T06:14:29.653Z,1016.28
2018-05-19T06:15:29.655Z,1016.33
2018-05-19T06:16:29.641Z,1016.29
2018-05-19T06:17:29.636Z,1016.32
2018-05-19T06:18:29.712Z,1016.34
2018-05-19T06:19:29.623Z,1016.28
2018-05-19T06:20:29.619Z,1016.23
2018-05-19T06:21:29.613Z,1016.28
2018-05-19T06:22:29.610Z,1016.29
2018-05-19T06:23:29.605Z,1016.31
2018-05-19T06:24:29.598Z,1016.31
2018-05-19T06:25:29.620Z,1016.33
2018-05-19T06:26:29.590Z,1016.35
2018-05-19T06:27:29.579Z,1016.35
2018-05-19T06:28:29.577Z,1016.31
2018-05-19T06:29:30.267Z,1016.32
2018-05-19T06:30:29.567Z,1016.33
2018-05-19T06:31:29.567Z,1016.32
2018-05-19T06:32:29.555Z,1016.37
2018-05-19T06:33:29.548Z,1016.36
2018-05-19T06:34:29.547Z,1016.38
2018-05-19T06:35:29.546Z,1016.39
2018-05-19T06:36:29.534Z,1016.37
2018-05-19T06:37:29.531Z,1016.43
2018-05-19T06:38:29.524Z,1016.40
2018-05-19T06:39:29.523Z,1016.42
2018-05-19T06:40:29.520Z,1016.41
2018-05-19T06:41:29.511Z,1016.41
2018-05-19T06:42:29.506Z,1016.36
2018-05-19T06:43:29.503Z,1016.37
2018-05-19T06:44:29.499Z,1016.38
2018-05-19T06:45:29.491Z,1016.36
2018-05-19T06:46:29.483Z,1016.37
2018-05-19T06:47:29.483Z,1016.39
2018-05-19T06:48:29.476Z,1016.41
2018-05-19T06:49:29.473Z,1016.38
2018-05-19T06:50:29.489Z,1016.36
2018-05-19T06:51:29.469Z,1016.40
2018-05-19T06:52:29.462Z,1016.39
2018-05-19T06:53:29.453Z,1016.42
2018-05-19T06:54:29.461Z,1016.42
2018-05-19T06:55:29.445Z,1016.42
2018-05-19T06:56:29.440Z,1016.42
2018-05-19T06:57:29.436Z,1016.48
2018-05-19T06:58:29.434Z,1016.44
2018-05-19T06:59:29.425Z,1016.45
2018-05-19T07:00:29.421Z,1016.45
2018-05-19T07:01:29.422Z,1016.42
2018-05-19T07:02:29.417Z,1016.47
2018-05-19T07:03:29.408Z,1016.47
2018-05-19T07:04:29.426Z,1016.43
2018-05-19T07:05:29.400Z,1016.49
2018-05-19T07:06:29.397Z,1016.50
2018-05-19T07:07:29.388Z,1016.54
2018-05-19T07:08:29.385Z,1016.54
2018-05-19T07:09:29.379Z,1016.57
2018-05-19T07:10:29.384Z,1016.56
2018-05-19T07:11:29.379Z,1016.59
2018-05-19T07:12:29.373Z,1016.56
2018-05-19T07:13:29.377Z,1016.59
2018-05-19T07:14:29.361Z,1016.56
2018-05-19T07:15:29.359Z,1016.55
2018-05-19T07:16:29.370Z,1016.60
2018-05-19T07:17:29.349Z,1016.58
2018-05-19T07:18:29.347Z,1016.59
2018-05-19T07:19:29.346Z,1016.56
2018-05-19T07:20:31.363Z,1016.58
2018-05-19T07:21:29.343Z,1016.55
2018-05-19T07:22:29.336Z,1016.57
2018-05-19T07:23:29.330Z,1016.59
2018-05-19T07:24:29.325Z,1016.57
2018-05-19T07:25:29.324Z,1016.58
2018-05-19T07:26:29.316Z,1016.58
2018-05-19T07:27:29.331Z,1016.55
2018-05-19T07:28:29.316Z,1016.53
2018-05-19T07:29:30.310Z,1016.53
2018-05-19T07:30:29.327Z,1016.48
2018-05-19T07:31:29.303Z,1016.51
2018-05-19T07:32:30.305Z,1016.49
2018-05-19T07:33:29.299Z,1016.48
2018-05-19T07:34:29.800Z,1016.47
2018-05-19T07:35:29.287Z,1016.46
2018-05-19T07:36:29.299Z,1016.42
2018-05-19T07:37:29.280Z,1016.43
2018-05-19T07:38:29.285Z,1016.42
2018-05-19T07:39:29.284Z,1016.39
2018-05-19T07:40:29.308Z,1016.41
2018-05-19T07:41:29.269Z,1016.44
2018-05-19T07:42:29.274Z,1016.43
2018-05-19T07:43:29.274Z,1016.40
2018-05-19T07:44:29.257Z,1016.40
2018-05-19T07:45:29.283Z,1016.42
2018-05-19T07:46:29.264Z,1016.40
2018-05-19T07:47:29.262Z,1016.42
2018-05-19T07:48:29.256Z,1016.40
2018-05-19T07:49:29.251Z,1016.40
2018-05-19T07:50:29.258Z,1016.40
2018-05-19T07:51:29.234Z,1016.39
2018-05-19T07:52:29.233Z,1016.37
2018-05-19T07:53:29.230Z,1016.40
2018-05-19T07:54:29.244Z,1016.40
2018-05-19T07:55:29.224Z,1016.36
2018-05-19T07:56:29.219Z,1016.40
2018-05-19T07:57:29.218Z,1016.40
2018-05-19T07:58:29.213Z,1016.41
2018-05-19T07:59:30.799Z,1016.45
2018-05-19T08:00:29.208Z,1016.41
2018-05-19T08:01:29.224Z,1016.43
2018-05-19T08:02:29.203Z,1016.45
2018-05-19T08:03:29.204Z,1016.43
2018-05-19T08:04:29.199Z,1016.42
2018-05-19T08:05:29.194Z,1016.45
2018-05-19T08:06:29.192Z,1016.43
2018-05-19T08:07:29.189Z,1016.44
2018-05-19T08:08:29.184Z,1016.40
2018-05-19T08:09:29.190Z,1016.44
2018-05-19T08:10:29.196Z,1016.42
2018-05-19T08:11:29.181Z,1016.43
2018-05-19T08:12:29.228Z,1016.49
2018-05-19T08:13:29.184Z,1016.43
2018-05-19T08:14:29.184Z,1016.43
2018-05-19T08:15:29.178Z,1016.44
2018-05-19T08:16:29.190Z,1016.41
2018-05-19T08:17:29.180Z,1016.41
2018-05-19T08:18:29.230Z,1016.42
2018-05-19T08:19:29.190Z,1016.45
2018-05-19T08:20:29.194Z,1016.48
2018-05-19T08:21:29.186Z,1016.43
2018-05-19T08:22:29.184Z,1016.46
2018-05-19T08:23:29.188Z,1016.51
2018-05-19T08:24:29.188Z,1016.53
2018-05-19T08:25:29.185Z,1016.49
2018-05-19T08:26:29.200Z,1016.49
2018-05-19T08:27:29.195Z,1016.45
2018-05-19T08:28:29.197Z,1016.48
2018-05-19T08:29:29.193Z,1016.50
2018-05-19T08:30:29.264Z,1016.48
2018-05-19T08:31:29.207Z,1016.50
2018-05-19T08:32:29.205Z,1016.43
2018-05-19T08:33:29.210Z,1016.49
2018-05-19T08:34:29.216Z,1016.49
2018-05-19T08:35:29.219Z,1016.50
2018-05-19T08:36:29.219Z,1016.45
2018-05-19T08:37:29.224Z,1016.47
2018-05-19T08:38:29.229Z,1016.47
2018-05-19T08:39:29.249Z,1016.49
2018-05-19T08:40:29.237Z,1016.48
2018-05-19T08:41:29.240Z,1016.54
2018-05-19T08:42:29.247Z,1016.55
2018-05-19T08:43:29.250Z,1016.54
2018-05-19T08:44:29.259Z,1016.54
2018-05-19T08:45:29.260Z,1016.48
2018-05-19T08:46:29.266Z,1016.50
2018-05-19T08:47:29.270Z,1016.49
2018-05-19T08:48:29.298Z,1016.53
2018-05-19T08:49:29.278Z,1016.57
2018-05-19T08:50:29.318Z,1016.57
2018-05-19T08:51:29.287Z,1016.53
2018-05-19T08:52:29.301Z,1016.61
2018-05-19T08:53:29.507Z,1016.60
2018-05-19T08:54:29.306Z,1016.56
2018-05-19T08:55:29.308Z,1016.53
2018-05-19T08:56:29.318Z,1016.54
2018-05-19T08:57:29.324Z,1016.54
2018-05-19T08:58:29.327Z,1016.53
2018-05-19T08:59:29.843Z,1016.49
2018-05-19T09:00:29.366Z,1016.53
2018-05-19T09:01:29.348Z,1016.56
2018-05-19T09:02:29.351Z,1016.56
2018-05-19T09:03:29.362Z,1016.56
2018-05-19T09:04:29.371Z,1016.52
2018-05-19T09:05:29.373Z,1016.50
2018-05-19T09:06:29.386Z,1016.47
2018-05-19T09:07:29.382Z,1016.46
2018-05-19T09:08:29.390Z,1016.46
2018-05-19T09:09:29.394Z,1016.53
2018-05-19T09:10:29.402Z,1016.47
2018-05-19T09:11:29.413Z,1016.48
2018-05-19T09:12:29.414Z,1016.44
2018-05-19T09:13:29.420Z,1016.45
2018-05-19T09:14:29.438Z,1016.41
2018-05-19T09:15:29.433Z,1016.41
2018-05-19T09:16:29.438Z,1016.43
2018-05-19T09:17:29.439Z,1016.44
2018-05-19T09:18:29.441Z,1016.35
2018-05-19T09:19:29.444Z,1016.35
2018-05-19T09:20:29.450Z,1016.41
2018-05-19T09:21:29.459Z,1016.37
2018-05-19T09:22:29.462Z,1016.40
2018-05-19T09:23:29.469Z,1016.42
2018-05-19T09:24:29.473Z,1016.43
2018-05-19T09:25:29.471Z,1016.43
2018-05-19T09:26:29.476Z,1016.41
2018-05-19T09:27:29.486Z,1016.39
2018-05-19T09:28:29.485Z,1016.45
2018-05-19T09:29:29.491Z,1016.45
2018-05-19T09:30:29.493Z,1016.40
2018-05-19T09:31:29.493Z,1016.50
2018-05-19T09:32:29.504Z,1016.42
2018-05-19T09:33:29.501Z,1016.48
2018-05-19T09:34:29.507Z,1016.41
2018-05-19T09:35:29.506Z,1016.45
2018-05-19T09:36:29.521Z,1016.44
2018-05-19T09:37:29.519Z,1016.42
2018-05-19T09:38:29.521Z,1016.40
2018-05-19T09:39:29.522Z,1016.39
2018-05-19T09:40:29.524Z,1016.40
2018-05-19T09:41:29.549Z,1016.41
2018-05-19T09:42:29.613Z,1016.46
2018-05-19T09:43:29.538Z,1016.43
2018-05-19T09:44:29.539Z,1016.46
2018-05-19T09:45:29.542Z,1016.45
2018-05-19T09:46:29.541Z,1016.46
2018-05-19T09:47:29.629Z,1016.50
2018-05-19T09:48:29.550Z,1016.46
2018-05-19T09:49:29.566Z,1016.46
2018-05-19T09:50:29.556Z,1016.45
2018-05-19T09:51:29.558Z,1016.47
2018-05-19T09:52:29.563Z,1016.46
2018-05-19T09:53:29.559Z,1016.45
2018-05-19T09:54:29.563Z,1016.41
2018-05-19T09:55:29.562Z,1016.46
2018-05-19T09:56:29.567Z,1016.46
2018-05-19T09:57:29.572Z,1016.48
2018-05-19T09:58:29.572Z,1016.40
2018-05-19T09:59:29.638Z,1016.44
2018-05-19T10:00:29.570Z,1016.44
2018-05-19T10:01:29.572Z,1016.40
2018-05-19T10:02:29.575Z,1016.42
2018-05-19T10:03:29.577Z,1016.42
2018-05-19T10:04:29.574Z,1016.44
2018-05-19T10:05:29.587Z,1016.42
2018-05-19T10:06:29.577Z,1016.44
2018-05-19T10:07:29.575Z,1016.45
2018-05-19T10:08:29.577Z,1016.49
2018-05-19T10:09:29.579Z,1016.50
2018-05-19T10:10:29.578Z,1016.53
2018-05-19T10:11:29.669Z,1016.47
2018-05-19T10:12:29.595Z,1016.52
2018-05-19T10:13:29.583Z,1016.48
2018-05-19T10:14:29.583Z,1016.51
2018-05-19T10:15:29.581Z,1016.58
2018-05-19T10:16:29.593Z,1016.43
2018-05-19T10:17:29.595Z,1016.38
2018-05-19T10:18:29.590Z,1016.38
2018-05-19T10:19:29.595Z,1016.39
2018-05-19T10:20:29.598Z,1016.44
2018-05-19T10:21:29.594Z,1016.51
2018-05-19T10:22:29.602Z,1016.45
2018-05-19T10:23:29.609Z,1016.49
2018-05-19T10:24:29.613Z,1016.51
2018-05-19T10:25:29.623Z,1016.48
2018-05-19T10:26:29.620Z,1016.48
2018-05-19T10:27:29.623Z,1016.50
2018-05-19T10:28:29.628Z,1016.48
2018-05-19T10:29:29.640Z,1016.51
2018-05-19T10:30:29.641Z,1016.48
2018-05-19T10:31:29.650Z,1016.47
2018-05-19T10:32:29.653Z,1016.49
2018-05-19T10:33:29.661Z,1016.53
2018-05-19T10:34:29.662Z,1016.57
2018-05-19T10:35:29.717Z,1016.58
2018-05-19T10:36:29.679Z,1016.55
2018-05-19T10:37:29.687Z,1016.55
2018-05-19T10:38:29.694Z,1016.51
2018-05-19T10:39:29.701Z,1016.55
2018-05-19T10:40:29.715Z,1016.53
2018-05-19T10:41:29.711Z,1016.50
2018-05-19T10:42:29.728Z,1016.48
2018-05-19T10:43:29.730Z,1016.46
2018-05-19T10:44:29.738Z,1016.47
2018-05-19T10:45:29.746Z,1016.44
2018-05-19T10:46:29.754Z,1016.43
2018-05-19T10:47:29.758Z,1016.44
2018-05-19T10:48:29.766Z,1016.47
2018-05-19T10:49:29.772Z,1016.44
2018-05-19T10:50:29.783Z,1016.52
2018-05-19T10:51:29.795Z,1016.51
2018-05-19T10:52:29.798Z,1016.44
2018-05-19T10:53:29.803Z,1016.42
2018-05-19T10:54:29.803Z,1016.42
2018-05-19T10:55:29.812Z,1016.46
2018-05-19T10:56:29.821Z,1016.45
2018-05-19T10:57:29.825Z,1016.46
2018-05-19T10:58:29.829Z,1016.54
2018-05-19T10:59:29.836Z,1016.52
2018-05-19T11:00:29.842Z,1016.53
2018-05-19T11:01:29.845Z,1016.46
2018-05-19T11:02:29.849Z,1016.48
2018-05-19T11:03:29.856Z,1016.56
2018-05-19T11:04:29.861Z,1016.48
2018-05-19T11:05:29.864Z,1016.48
2018-05-19T11:06:29.872Z,1016.43
2018-05-19T11:07:29.876Z,1016.48
2018-05-19T11:08:29.877Z,1016.52
2018-05-19T11:09:29.884Z,1016.53
2018-05-19T11:10:29.889Z,1016.53
2018-05-19T11:11:29.896Z,1016.59
2018-05-19T11:12:29.903Z,1016.54
2018-05-19T11:13:29.902Z,1016.52
2018-05-19T11:14:29.911Z,1016.52
2018-05-19T11:15:29.915Z,1016.49
2018-05-19T11:16:29.915Z,1016.52
2018-05-19T11:17:29.920Z,1016.53
2018-05-19T11:18:29.937Z,1016.52
2018-05-19T11:19:29.936Z,1016.45
2018-05-19T11:20:29.941Z,1016.44
2018-05-19T11:21:29.942Z,1016.44
2018-05-19T11:22:29.949Z,1016.49
2018-05-19T11:23:29.957Z,1016.44
2018-05-19T11:24:29.964Z,1016.41
2018-05-19T11:25:29.967Z,1016.40
2018-05-19T11:26:29.980Z,1016.41
2018-05-19T11:27:29.979Z,1016.39
2018-05-19T11:28:29.978Z,1016.33
2018-05-19T11:29:29.985Z,1016.35
2018-05-19T11:30:29.998Z,1016.34
2018-05-19T11:31:29.997Z,1016.37
2018-05-19T11:32:29.999Z,1016.37
2018-05-19T11:33:30.008Z,1016.38
2018-05-19T11:34:30.007Z,1016.37
2018-05-19T11:35:30.011Z,1016.39
2018-05-19T11:36:30.016Z,1016.37
2018-05-19T11:37:30.018Z,1016.47
2018-05-19T11:38:30.023Z,1016.44
2018-05-19T11:39:30.031Z,1016.43
2018-05-19T11:40:30.049Z,1016.48
2018-05-19T11:41:30.087Z,1016.42
2018-05-19T11:42:30.042Z,1016.43
2018-05-19T11:43:30.043Z,1016.41
2018-05-19T11:44:30.054Z,1016.41
2018-05-19T11:45:30.051Z,1016.45
2018-05-19T11:46:30.061Z,1016.44
2018-05-19T11:47:30.968Z,1016.42
2018-05-19T11:48:30.068Z,1016.54
2018-05-19T11:49:30.071Z,1016.49
2018-05-19T11:50:30.083Z,1016.44
2018-05-19T11:51:30.085Z,1016.49
2018-05-19T11:52:30.098Z,1016.48
2018-05-19T11:53:30.100Z,1016.48
2018-05-19T11:54:30.112Z,1016.43
2018-05-19T11:55:30.106Z,1016.41
2018-05-19T11:56:30.135Z,1016.49
2018-05-19T11:57:30.126Z,1016.48
2018-05-19T11:58:30.176Z,1016.47
2018-05-19T11:59:30.134Z,1016.44
2018-05-19T12:00:30.137Z,1016.39
2018-05-19T12:01:30.143Z,1016.45
2018-05-19T12:02:30.153Z,1016.46
2018-05-19T12:03:30.163Z,1016.47
2018-05-19T12:04:30.168Z,1016.42
2018-05-19T12:05:30.174Z,1016.40